Etusivu
METAR-TAF:

METAR-TAF

Lentoasemat :

Moosonee, Ontario, Kanada

Leveyspiiri: 51-16N, Pituuspiiri: 080-39W, korkeus merenpinnasta: 10 m

Tämänhetkinen sää

Tämä raportti tehtiin 1 tunti ja 6 minuuttia sitten, kello 09.00 UTC
Tuuli 3 kn lännestä
Lämpötila -20°C
Kosteus 84%
Ilmanpaine 1021 hPa
Näkyvyys: 14.5 km
selkeää

METAR: CYMO 250900Z AUTO 28003KT 9SM CLR M20/M22 A3015 RMK SLP213

Aika: 05:06 (10:06 UTC)

Sääennuste

Tämä raportti tehtiin 4 tuntia ja 28 minuuttia sitten, kello 05.38 UTC
Ennuste voimassa 25. päivästä klo 06 UTC - 25. päivään klo 18 UTC
Tuuli 5 kn lännestä/luoteesta
Näkyvyys: 10 km
Hajanaisia pilviä 12000 ft:n korkeudessa
From 25. päivästä klo 1300 UTC
Tuuli 10 kn luoteesta
Näkyvyys: 8.0 km
Hajonneita pilviä 1500 ft:n korkeudessa
Pilvistä 5000 ft:n korkeudessa
heikkoa lumisadetta

TAF: CYMO 250538Z 2506/2518 29005KT P6SM SCT120 FM251300 32010KT 5SM -SN BKN015 OVC050 RMK FCST BASED ON AUTO OBS. NXT FCST BY 251200Z

Säähavainnot ja -ennusteet yli 4000 lentoasemalta (METAR- ja TAF-raportit).

Käytössä olevat sääasemat on merkitty karttaan keltaisilla ja punaisilla pisteillä.

Aseta hiiri pisteen päälle nähdäksesi sääaseman nimen.

Klikkaa sitten nähdäksesi säähavainnot ja -ennusteet.

Kartan vaihtaminen: klikkaa mustalla rastilla varustettuja vihreitä pisteitä, niin voit zoomata sisään; viivalla varustettua vihreää pistettä, niin voit zoomata ulos tai vihreitä nuolia, niin pääset viereisille kartoille.


METAR-TAF: